createdAt,value
2023-05-20T00:00:51.433Z,6.66
2023-05-20T00:05:55.662Z,6.98
2023-05-20T00:10:59.636Z,7.34
2023-05-20T00:16:03.850Z,7.78
2023-05-20T00:21:07.986Z,8.31
2023-05-20T00:26:12.130Z,8.77
2023-05-20T00:31:17.408Z,9.12
2023-05-20T00:36:21.329Z,9.54
2023-05-20T00:41:25.766Z,9.93
2023-05-20T00:46:30.718Z,10.31
2023-05-20T00:51:35.066Z,10.75
2023-05-20T00:56:39.218Z,11.19
2023-05-20T01:01:43.465Z,11.41
2023-05-20T01:06:48.764Z,12.02
2023-05-20T01:12:12.601Z,12.52
2023-05-20T01:17:21.920Z,13.04
2023-05-20T01:22:30.326Z,13.59
2023-05-20T01:27:34.812Z,14.16
2023-05-20T01:32:51.796Z,14.67
2023-05-20T01:37:58.910Z,15.23
2023-05-20T01:43:04.720Z,15.83
2023-05-20T01:48:12.211Z,16.42
2023-05-20T01:53:18.173Z,16.82
2023-05-20T01:58:22.207Z,17.14
2023-05-20T02:03:27.792Z,17.46
2023-05-20T02:08:31.701Z,17.73
2023-05-20T02:13:36.702Z,18.01
2023-05-20T02:18:40.705Z,18.32
2023-05-20T02:23:45.217Z,18.34
2023-05-20T02:28:51.396Z,18.35
2023-05-20T02:33:58.620Z,18.78
2023-05-20T02:39:03.026Z,18.61
2023-05-20T02:44:08.298Z,19.07
2023-05-20T02:49:12.271Z,19.31
2023-05-20T02:54:16.342Z,19.45
2023-05-20T02:59:20.318Z,19.19
2023-05-20T03:04:26.597Z,19.12
2023-05-20T03:09:30.650Z,19.48
2023-05-20T03:14:34.990Z,19.77
2023-05-20T03:19:38.978Z,19.93
2023-05-20T03:24:45.328Z,19.91
2023-05-20T03:29:50.697Z,19.51
2023-05-20T03:34:56.183Z,19.43
2023-05-20T03:40:02.922Z,19.24
2023-05-20T03:45:07.927Z,20.03
2023-05-20T03:50:19.262Z,20.43
2023-05-20T03:55:23.626Z,20.64
2023-05-20T04:00:28.687Z,20.88
2023-05-20T04:05:33.090Z,21.10
2023-05-20T04:10:39.622Z,21.02
2023-05-20T04:15:43.681Z,20.88
2023-05-20T04:20:49.256Z,20.56
2023-05-20T04:25:54.099Z,20.69
2023-05-20T04:31:05.947Z,20.93
2023-05-20T04:36:16.479Z,21.18
2023-05-20T04:41:21.229Z,20.84
2023-05-20T04:46:26.971Z,21.05
2023-05-20T04:51:31.122Z,21.56
2023-05-20T04:56:35.608Z,21.65
2023-05-20T05:01:40.486Z,21.80
2023-05-20T05:06:44.671Z,21.09
2023-05-20T05:11:49.325Z,21.62
2023-05-20T05:16:55.546Z,21.81
2023-05-20T05:22:00.071Z,21.46
2023-05-20T05:27:04.258Z,20.73
2023-05-20T05:32:09.181Z,20.78
2023-05-20T05:37:13.268Z,21.37
2023-05-20T05:42:17.559Z,21.25
2023-05-20T05:47:22.723Z,21.07
2023-05-20T05:52:28.556Z,21.02
2023-05-20T05:57:32.983Z,20.86
2023-05-20T06:02:38.672Z,20.92
2023-05-20T06:07:42.732Z,20.46
2023-05-20T06:12:47.252Z,20.49
2023-05-20T06:17:51.493Z,20.33
2023-05-20T06:22:56.026Z,20.55
2023-05-20T06:28:05.242Z,20.87
2023-05-20T06:33:10.550Z,20.90
2023-05-20T06:38:14.932Z,20.89
2023-05-20T06:43:19.792Z,20.62
2023-05-20T06:48:46.148Z,20.55
2023-05-20T06:53:50.190Z,20.63
2023-05-20T06:58:55.791Z,20.98
2023-05-20T07:03:59.951Z,20.71
2023-05-20T07:09:04.880Z,20.89
2023-05-20T07:14:09.960Z,20.80
2023-05-20T07:19:14.835Z,20.42
2023-05-20T07:24:18.879Z,20.16
2023-05-20T07:29:23.019Z,20.30
2023-05-20T07:34:27.694Z,20.73
2023-05-20T07:39:32.158Z,20.91
2023-05-20T07:44:36.374Z,21.09
2023-05-20T07:49:41.715Z,21.18
2023-05-20T07:54:45.901Z,21.26
2023-05-20T07:59:50.402Z,21.77
2023-05-20T08:04:55.254Z,21.66
2023-05-20T08:09:59.242Z,21.84
2023-05-20T08:15:05.321Z,22.06
2023-05-20T08:20:10.537Z,21.96
2023-05-20T08:25:15.939Z,21.78
2023-05-20T08:30:23.317Z,21.48
2023-05-20T08:35:28.032Z,20.99
2023-05-20T08:40:32.331Z,20.94
2023-05-20T08:45:39.861Z,20.80
2023-05-20T08:50:54.062Z,20.83
2023-05-20T08:56:04.032Z,20.96
2023-05-20T09:01:09.297Z,21.19
2023-05-20T09:06:22.086Z,21.09
2023-05-20T09:11:27.848Z,20.82
2023-05-20T09:16:32.203Z,20.90
2023-05-20T09:21:38.133Z,20.91
2023-05-20T09:26:42.552Z,21.19
2023-05-20T09:31:46.828Z,21.00
2023-05-20T09:36:52.138Z,20.85
2023-05-20T09:42:38.666Z,20.93
2023-05-20T09:47:44.179Z,20.85
2023-05-20T09:52:54.277Z,20.77
2023-05-20T09:58:02.984Z,20.80
2023-05-20T10:03:07.690Z,21.07
2023-05-20T10:08:20.352Z,20.80
2023-05-20T10:13:48.967Z,20.70
2023-05-20T10:19:04.728Z,20.66
2023-05-20T10:24:12.710Z,20.74
2023-05-20T10:29:18.830Z,20.83
2023-05-20T10:34:24.536Z,20.74
2023-05-20T10:39:35.337Z,20.47
2023-05-20T10:44:47.306Z,20.31
2023-05-20T10:49:51.391Z,20.37
2023-05-20T10:54:57.005Z,20.46
2023-05-20T11:00:02.204Z,20.41
2023-05-20T11:05:13.559Z,20.37
2023-05-20T11:10:17.667Z,20.32
2023-05-20T11:15:27.482Z,20.28
2023-05-20T11:20:36.061Z,20.20
2023-05-20T11:25:40.276Z,20.24
2023-05-20T11:30:44.726Z,20.30
2023-05-20T11:35:54.102Z,20.30
2023-05-20T11:40:59.601Z,20.42
2023-05-20T11:46:06.233Z,20.59
2023-05-20T11:51:10.341Z,20.47
2023-05-20T11:56:15.893Z,20.38
2023-05-20T12:01:22.879Z,20.33
2023-05-20T12:06:27.736Z,20.31
2023-05-20T12:11:31.667Z,20.38
2023-05-20T12:16:38.142Z,20.21
2023-05-20T12:21:42.340Z,20.03
2023-05-20T12:26:46.780Z,19.79
2023-05-20T12:31:50.659Z,19.63
2023-05-20T12:36:55.558Z,19.51
2023-05-20T12:41:59.844Z,19.76
2023-05-20T12:47:04.264Z,19.85
2023-05-20T12:52:15.291Z,19.76
2023-05-20T12:57:26.514Z,19.56
2023-05-20T13:02:30.967Z,19.41
2023-05-20T13:07:35.327Z,19.22
2023-05-20T13:12:39.865Z,19.09
2023-05-20T13:17:44.031Z,18.96
2023-05-20T13:22:48.836Z,18.87
2023-05-20T13:27:52.714Z,18.78
2023-05-20T13:32:56.832Z,18.74
2023-05-20T13:38:00.876Z,18.67
2023-05-20T13:43:05.221Z,18.63
2023-05-20T13:48:09.419Z,18.57
2023-05-20T13:53:14.638Z,18.47
2023-05-20T13:58:18.820Z,18.39
2023-05-20T14:03:23.049Z,18.28
2023-05-20T14:08:27.867Z,18.09
2023-05-20T14:13:31.787Z,17.94
2023-05-20T14:18:35.963Z,17.61
2023-05-20T14:23:45.008Z,17.15
2023-05-20T14:28:49.970Z,16.77
2023-05-20T14:33:54.270Z,16.51
2023-05-20T14:38:58.465Z,16.24
2023-05-20T14:44:02.435Z,15.97
2023-05-20T14:49:06.781Z,15.71
2023-05-20T14:54:11.043Z,15.44
2023-05-20T14:59:15.361Z,15.21
2023-05-20T15:04:19.417Z,14.62
2023-05-20T15:09:24.479Z,14.64
2023-05-20T15:14:28.687Z,14.41
2023-05-20T15:19:33.597Z,14.15
2023-05-20T15:24:38.034Z,13.95
2023-05-20T15:29:42.081Z,13.57
2023-05-20T15:34:47.057Z,13.58
2023-05-20T15:39:51.140Z,13.32
2023-05-20T15:44:55.215Z,13.12
2023-05-20T15:50:00.025Z,12.67
2023-05-20T15:55:04.227Z,12.85
2023-05-20T16:00:11.743Z,12.58
2023-05-20T16:05:16.607Z,12.33
2023-05-20T16:10:22.395Z,12.05
2023-05-20T16:15:28.892Z,11.73
2023-05-20T16:20:33.098Z,11.43
2023-05-20T16:25:37.663Z,11.19
2023-05-20T16:30:42.103Z,10.98
2023-05-20T16:35:46.365Z,10.81
2023-05-20T16:40:50.426Z,10.56
2023-05-20T16:45:54.708Z,10.39
2023-05-20T16:50:59.093Z,10.27
2023-05-20T16:56:02.985Z,10.10
2023-05-20T17:01:07.509Z,9.86
2023-05-20T17:06:11.738Z,9.74
2023-05-20T17:11:15.792Z,9.53
2023-05-20T17:16:21.093Z,9.36
2023-05-20T17:21:25.211Z,9.29
2023-05-20T17:26:29.551Z,9.16
2023-05-20T17:31:33.946Z,8.98
2023-05-20T17:36:38.098Z,8.45
2023-05-20T17:41:43.584Z,8.60
2023-05-20T17:46:49.509Z,8.50
2023-05-20T17:51:53.626Z,8.39
2023-05-20T17:56:57.899Z,8.29
2023-05-20T18:02:02.026Z,8.16
2023-05-20T18:07:07.674Z,7.94
2023-05-20T18:12:11.749Z,7.79
2023-05-20T18:17:16.161Z,7.64
2023-05-20T18:22:20.417Z,7.41
2023-05-20T18:27:24.583Z,7.36
2023-05-20T18:32:29.787Z,7.28
2023-05-20T18:37:33.807Z,7.10
2023-05-20T18:42:38.121Z,7.00
2023-05-20T18:47:42.548Z,6.89
2023-05-20T18:52:46.896Z,6.69
2023-05-20T18:57:51.261Z,6.52
2023-05-20T19:02:58.738Z,6.50
2023-05-20T19:08:03.263Z,6.24
2023-05-20T19:13:07.265Z,5.92
2023-05-20T19:18:12.192Z,6.24
2023-05-20T19:23:16.771Z,6.28
2023-05-20T19:28:20.852Z,6.24
2023-05-20T19:33:25.036Z,6.16
2023-05-20T19:38:29.250Z,6.02
2023-05-20T19:43:33.151Z,5.84
2023-05-20T19:48:37.360Z,5.66
2023-05-20T19:53:41.473Z,5.61
2023-05-20T19:58:49.154Z,5.57
2023-05-20T20:03:54.642Z,5.44
2023-05-20T20:08:58.858Z,5.35
2023-05-20T20:14:02.841Z,4.94
2023-05-20T20:19:06.961Z,5.10
2023-05-20T20:24:10.868Z,4.98
2023-05-20T20:29:16.336Z,4.90
2023-05-20T20:34:20.852Z,4.84
2023-05-20T20:39:25.781Z,4.74
2023-05-20T20:44:29.941Z,4.66
2023-05-20T20:49:34.069Z,4.62
2023-05-20T20:54:42.176Z,4.54
2023-05-20T20:59:48.492Z,4.46
2023-05-20T21:04:52.354Z,4.39
2023-05-20T21:09:56.553Z,4.29
2023-05-20T21:15:00.911Z,4.27
2023-05-20T21:20:07.541Z,4.17
2023-05-20T21:25:11.970Z,4.10
2023-05-20T21:30:17.976Z,4.01
2023-05-20T21:35:22.078Z,3.95
2023-05-20T21:40:26.401Z,3.87
2023-05-20T21:45:30.456Z,3.71
2023-05-20T21:50:34.577Z,3.78
2023-05-20T21:55:38.879Z,3.69
2023-05-20T22:00:43.390Z,3.39
2023-05-20T22:05:47.427Z,3.60
2023-05-20T22:10:51.354Z,3.55
2023-05-20T22:15:55.362Z,3.54
2023-05-20T22:21:00.237Z,3.46
2023-05-20T22:26:05.437Z,3.35
2023-05-20T22:31:09.517Z,3.41
2023-05-20T22:36:13.398Z,3.46
2023-05-20T22:41:17.494Z,3.60
2023-05-20T22:46:21.381Z,3.75
2023-05-20T22:51:25.964Z,3.93
2023-05-20T22:56:30.388Z,4.13
2023-05-20T23:01:34.267Z,4.36
2023-05-20T23:06:40.219Z,4.55
2023-05-20T23:11:43.976Z,4.84
2023-05-20T23:16:48.185Z,5.07
2023-05-20T23:21:52.449Z,5.45
2023-05-20T23:26:56.423Z,5.71
2023-05-20T23:32:00.495Z,5.87
2023-05-20T23:37:04.530Z,6.26
2023-05-20T23:42:08.672Z,6.57
2023-05-20T23:47:14.079Z,6.83
2023-05-20T23:52:18.078Z,7.28
2023-05-20T23:57:22.084Z,7.77
